Time;durP1;ratioP1;P1;durP2;ratioP2;P2;SDS_P1;SDS_P2;PMS_P1;PMS_P2;Temp;Humidity;BMP_temperature;BMP_pressure;BME280_temperature;BME280_humidity;BME280_pressure;Samples;Min_cycle;Max_cycle;Signal;HPM_P1;HPM_P2
2024/03/21 00:00:33;;;;;;;;;;;4.50;91.10;;;;;;5096806;28;19908;-73
2024/03/21 00:02:59;;;;;;;;;;;4.50;91.10;;;;;;5095683;28;19908;-73
2024/03/21 00:05:26;;;;;;;;;;;4.40;91.40;;;;;;5114325;28;19990;-74
2024/03/21 00:07:52;;;;;;;;;;;4.40;91.70;;;;;;5114324;28;19904;-73
2024/03/21 00:10:21;;;;;;;;;;;4.40;91.60;;;;;;5096434;28;19915;-74
2024/03/21 00:12:50;;;;;;;;;;;4.30;91.60;;;;;;5095847;28;20340;-74
2024/03/21 00:15:16;;;;;;;;;;;4.30;91.30;;;;;;5114588;28;19904;-73
2024/03/21 00:17:42;;;;;;;;;;;4.30;90.50;;;;;;5121800;28;19911;-73
2024/03/21 00:20:10;;;;;;;;;;;4.30;90.10;;;;;;5121066;28;19908;-73
2024/03/21 00:22:36;;;;;;;;;;;4.30;90.10;;;;;;5113667;28;19957;-73
2024/03/21 00:25:01;;;;;;;;;;;4.30;90.00;;;;;;5113447;28;19935;-73
2024/03/21 00:27:27;;;;;;;;;;;4.30;90.20;;;;;;5113216;28;20413;-73
2024/03/21 00:29:53;;;;;;;;;;;4.30;87.40;;;;;;5094527;28;19916;-73
2024/03/21 00:32:19;;;;;;;;;;;4.30;86.90;;;;;;5113240;28;19904;-74
2024/03/21 00:34:44;;;;;;;;;;;4.30;85.60;;;;;;5094592;28;19965;-73
2024/03/21 00:37:10;;;;;;;;;;;4.30;85.70;;;;;;5094685;28;20515;-73
2024/03/21 00:39:36;;;;;;;;;;;4.30;86.10;;;;;;5094714;28;19943;-73
2024/03/21 00:42:01;;;;;;;;;;;4.20;85.10;;;;;;5094761;28;19907;-73
2024/03/21 00:44:27;;;;;;;;;;;4.30;83.80;;;;;;5094613;28;19941;-74
2024/03/21 00:46:52;;;;;;;;;;;4.30;81.80;;;;;;5112722;28;19907;-74
2024/03/21 00:49:19;;;;;;;;;;;4.30;81.50;;;;;;5112812;28;19919;-73
2024/03/21 00:51:45;;;;;;;;;;;4.30;79.40;;;;;;5112715;28;19956;-73
2024/03/21 00:54:10;;;;;;;;;;;4.30;79.10;;;;;;5094526;28;20434;-73
2024/03/21 00:56:38;;;;;;;;;;;4.30;79.20;;;;;;5112723;28;19949;-73
2024/03/21 00:59:04;;;;;;;;;;;4.30;79.50;;;;;;5094226;28;19911;-73
2024/03/21 01:01:30;;;;;;;;;;;4.30;79.80;;;;;;5093979;28;20291;-73
2024/03/21 01:03:56;;;;;;;;;;;4.30;80.20;;;;;;5094145;28;19995;-74
2024/03/21 01:06:22;;;;;;;;;;;4.20;79.80;;;;;;5112608;28;20360;-73
2024/03/21 01:08:47;;;;;;;;;;;4.20;79.50;;;;;;5112460;28;19915;-72
2024/03/21 01:11:13;;;;;;;;;;;4.10;79.30;;;;;;5094424;28;19908;-74
2024/03/21 01:13:39;;;;;;;;;;;4.20;80.10;;;;;;5112422;28;20336;-74
2024/03/21 01:16:08;;;;;;;;;;;4.20;79.60;;;;;;5112149;28;20314;-73
2024/03/21 01:18:36;;;;;;;;;;;4.20;79.50;;;;;;5112122;28;19914;-73
2024/03/21 01:21:02;;;;;;;;;;;4.20;79.30;;;;;;5094063;28;20014;-73
2024/03/21 01:23:28;;;;;;;;;;;4.20;79.50;;;;;;5093967;28;20360;-73
2024/03/21 01:25:54;;;;;;;;;;;4.20;79.90;;;;;;5112201;28;19972;-72
2024/03/21 01:28:19;;;;;;;;;;;4.20;80.20;;;;;;5111902;28;19908;-72
2024/03/21 01:30:45;;;;;;;;;;;4.30;79.00;;;;;;5112041;28;19912;-73
2024/03/21 01:33:10;;;;;;;;;;;4.40;77.40;;;;;;5093609;28;19953;-73
2024/03/21 01:35:36;;;;;;;;;;;4.50;76.40;;;;;;5093626;28;19971;-74
2024/03/21 01:38:04;;;;;;;;;;;4.50;75.00;;;;;;5111792;28;20284;-72
2024/03/21 01:40:30;;;;;;;;;;;4.60;74.10;;;;;;5111901;28;19946;-73
2024/03/21 01:42:56;;;;;;;;;;;4.70;73.20;;;;;;5093418;28;20387;-73
2024/03/21 01:45:21;;;;;;;;;;;4.70;73.40;;;;;;5093609;28;19911;-73
2024/03/21 01:47:47;;;;;;;;;;;4.70;74.00;;;;;;5092919;28;19908;-74
2024/03/21 01:50:12;;;;;;;;;;;4.70;74.70;;;;;;5093125;28;20014;-73
2024/03/21 01:52:39;;;;;;;;;;;4.60;76.30;;;;;;5111492;28;19955;-74
2024/03/21 01:55:05;;;;;;;;;;;4.60;77.80;;;;;;5093359;28;19903;-73
2024/03/21 01:57:33;;;;;;;;;;;4.50;79.40;;;;;;5111466;28;19911;-73
2024/03/21 01:59:59;;;;;;;;;;;4.40;79.40;;;;;;5110891;28;20333;-73
2024/03/21 02:02:25;;;;;;;;;;;4.30;79.30;;;;;;5111480;28;19957;-73
2024/03/21 02:04:51;;;;;;;;;;;4.30;79.70;;;;;;5111396;28;20073;-73
2024/03/21 02:07:18;;;;;;;;;;;4.20;80.00;;;;;;5111416;28;20333;-73
2024/03/21 02:09:44;;;;;;;;;;;4.20;79.70;;;;;;5092980;28;20501;-73
2024/03/21 02:12:09;;;;;;;;;;;4.20;79.50;;;;;;5093080;28;19908;-73
2024/03/21 02:14:39;;;;;;;;;;;4.10;80.20;;;;;;5094365;28;19990;-73
2024/03/21 02:17:04;;;;;;;;;;;4.10;80.90;;;;;;5100340;28;19912;-73
2024/03/21 02:19:30;;;;;;;;;;;4.10;81.00;;;;;;5097849;28;19908;-72
2024/03/21 02:24:39;;;;;;;;;;;4.30;80.00;;;;;;5118524;28;19961;-73
2024/03/21 02:27:05;;;;;;;;;;;4.30;79.80;;;;;;5095045;28;19912;-72
2024/03/21 02:29:30;;;;;;;;;;;4.30;79.90;;;;;;5111380;28;20378;-72
2024/03/21 02:31:56;;;;;;;;;;;4.30;80.60;;;;;;5092928;28;20002;-72
2024/03/21 02:34:22;;;;;;;;;;;4.30;81.10;;;;;;5111055;28;20391;-73
2024/03/21 02:36:47;;;;;;;;;;;4.40;81.00;;;;;;5092249;28;19903;-72
2024/03/21 02:39:13;;;;;;;;;;;4.50;80.30;;;;;;5092280;28;19914;-73
2024/03/21 02:41:38;;;;;;;;;;;4.50;80.40;;;;;;5092405;28;19910;-73
2024/03/21 02:44:04;;;;;;;;;;;4.50;81.00;;;;;;5110435;28;19903;-73
2024/03/21 02:46:29;;;;;;;;;;;4.50;81.60;;;;;;5111300;28;19943;-73
2024/03/21 02:48:55;;;;;;;;;;;4.60;83.40;;;;;;5111018;28;19916;-73
2024/03/21 02:51:23;;;;;;;;;;;4.60;83.20;;;;;;5111314;28;19907;-73
2024/03/21 02:53:50;;;;;;;;;;;4.60;82.90;;;;;;5111287;28;19912;-74
2024/03/21 02:56:15;;;;;;;;;;;4.60;82.10;;;;;;5111267;28;20368;-74
2024/03/21 02:58:41;;;;;;;;;;;4.60;82.40;;;;;;5110361;28;19998;-73
2024/03/21 03:01:07;;;;;;;;;;;4.50;82.80;;;;;;5113947;28;19998;-73
2024/03/21 03:03:32;;;;;;;;;;;4.50;83.70;;;;;;5100586;28;19907;-74
2024/03/21 03:05:58;;;;;;;;;;;4.40;85.00;;;;;;5114370;28;20007;-73
2024/03/21 03:08:23;;;;;;;;;;;4.30;84.80;;;;;;5092538;28;20436;-72
2024/03/21 03:10:49;;;;;;;;;;;4.30;85.90;;;;;;5110429;28;19914;-73
2024/03/21 03:13:14;;;;;;;;;;;4.30;83.60;;;;;;5092081;28;19907;-73
2024/03/21 03:15:40;;;;;;;;;;;4.30;82.90;;;;;;5091421;28;19914;-72
2024/03/21 03:18:05;;;;;;;;;;;4.40;81.50;;;;;;5110241;28;19908;-73
2024/03/21 03:20:31;;;;;;;;;;;4.40;80.10;;;;;;5110379;28;20002;-73
2024/03/21 03:22:57;;;;;;;;;;;4.50;78.80;;;;;;5110394;28;20645;-72
2024/03/21 03:25:22;;;;;;;;;;;4.60;77.20;;;;;;5110023;28;20380;-74
2024/03/21 03:27:49;;;;;;;;;;;4.60;78.40;;;;;;5110209;28;19907;-73
2024/03/21 03:30:15;;;;;;;;;;;4.60;77.60;;;;;;5091826;28;19962;-72
2024/03/21 03:32:47;;;;;;;;;;;4.60;78.30;;;;;;5110085;28;19938;-73
2024/03/21 03:37:57;;;;;;;;;;;4.40;80.50;;;;;;5110139;28;19914;-73
2024/03/21 03:40:23;;;;;;;;;;;4.30;81.50;;;;;;5092109;28;19904;-73
2024/03/21 03:42:48;;;;;;;;;;;4.10;82.90;;;;;;5091594;28;20261;-74
2024/03/21 03:45:14;;;;;;;;;;;4.00;84.10;;;;;;5110006;28;20450;-74
2024/03/21 03:47:39;;;;;;;;;;;3.90;84.50;;;;;;5091783;28;19914;-74
2024/03/21 03:50:05;;;;;;;;;;;3.90;84.80;;;;;;5091627;28;19916;-73
2024/03/21 03:52:30;;;;;;;;;;;3.90;84.00;;;;;;5110053;28;19908;-74
2024/03/21 03:54:56;;;;;;;;;;;3.90;84.40;;;;;;5091409;28;19907;-73
2024/03/21 03:57:21;;;;;;;;;;;3.80;84.70;;;;;;5109770;28;19907;-73
2024/03/21 03:59:47;;;;;;;;;;;3.80;85.10;;;;;;5110034;28;19912;-74
2024/03/21 04:02:12;;;;;;;;;;;3.80;84.90;;;;;;5091261;28;19907;-72
2024/03/21 04:04:38;;;;;;;;;;;3.80;84.10;;;;;;5091617;28;19964;-72
2024/03/21 04:07:04;;;;;;;;;;;3.80;84.40;;;;;;5109924;28;19907;-74
2024/03/21 04:09:30;;;;;;;;;;;3.80;84.70;;;;;;5109336;28;20360;-73
2024/03/21 04:11:55;;;;;;;;;;;3.70;85.00;;;;;;5113521;28;19908;-74
2024/03/21 04:14:21;;;;;;;;;;;3.70;85.30;;;;;;5113630;28;20002;-73
2024/03/21 04:16:46;;;;;;;;;;;3.70;85.20;;;;;;5095189;28;20359;-74
2024/03/21 04:19:12;;;;;;;;;;;3.60;85.50;;;;;;5095133;28;20450;-74
2024/03/21 04:21:37;;;;;;;;;;;3.60;86.30;;;;;;5095051;28;19907;-74
2024/03/21 04:24:03;;;;;;;;;;;3.50;86.50;;;;;;5095374;28;19965;-73
2024/03/21 04:26:29;;;;;;;;;;;3.40;87.50;;;;;;5095837;28;19907;-73
2024/03/21 04:28:55;;;;;;;;;;;3.30;89.40;;;;;;5096321;28;19919;-73
2024/03/21 04:31:21;;;;;;;;;;;3.30;89.10;;;;;;5094846;28;19911;-71
2024/03/21 04:33:46;;;;;;;;;;;3.20;90.10;;;;;;5095240;28;19908;-73
2024/03/21 04:36:12;;;;;;;;;;;3.20;90.70;;;;;;5095101;28;20381;-74
2024/03/21 04:38:37;;;;;;;;;;;3.10;91.20;;;;;;5112845;28;19908;-73
2024/03/21 04:41:03;;;;;;;;;;;3.10;91.10;;;;;;5094878;28;19904;-73
2024/03/21 04:43:28;;;;;;;;;;;3.10;91.10;;;;;;5094636;28;19987;-73
2024/03/21 04:45:56;;;;;;;;;;;3.10;90.40;;;;;;5094421;28;19904;-74
2024/03/21 04:48:22;;;;;;;;;;;3.20;90.00;;;;;;5113076;28;19916;-73
2024/03/21 04:50:47;;;;;;;;;;;3.20;89.60;;;;;;5112933;28;19918;-73
2024/03/21 04:53:13;;;;;;;;;;;3.20;90.40;;;;;;5094350;28;20351;-74
2024/03/21 04:55:38;;;;;;;;;;;3.20;90.70;;;;;;5112936;28;20253;-74
2024/03/21 04:58:04;;;;;;;;;;;3.20;90.50;;;;;;5094399;28;19904;-75
2024/03/21 05:00:29;;;;;;;;;;;3.30;90.40;;;;;;5094355;28;20332;-73
2024/03/21 05:02:55;;;;;;;;;;;3.40;90.50;;;;;;5112508;28;19904;-74
2024/03/21 05:05:20;;;;;;;;;;;3.40;90.70;;;;;;5094327;28;19903;-74
2024/03/21 05:07:46;;;;;;;;;;;3.50;90.80;;;;;;5112584;28;20287;-74
2024/03/21 05:10:13;;;;;;;;;;;3.60;90.80;;;;;;5094366;28;19957;-74
2024/03/21 05:12:39;;;;;;;;;;;3.70;90.60;;;;;;5094083;28;19907;-74
2024/03/21 05:15:04;;;;;;;;;;;3.90;91.00;;;;;;5094395;28;19914;-73
2024/03/21 05:17:30;;;;;;;;;;;4.00;90.90;;;;;;5094083;28;20391;-74
2024/03/21 05:19:55;;;;;;;;;;;4.10;91.20;;;;;;5112320;28;20120;-73
2024/03/21 05:22:21;;;;;;;;;;;4.10;90.90;;;;;;5093027;28;20379;-72
2024/03/21 05:24:46;;;;;;;;;;;4.40;90.90;;;;;;5111768;28;19920;-73
2024/03/21 05:27:15;;;;;;;;;;;4.60;90.60;;;;;;5112181;28;19903;-73
2024/03/21 05:29:43;;;;;;;;;;;4.80;90.70;;;;;;5094025;28;20399;-74
2024/03/21 05:32:09;;;;;;;;;;;4.90;90.20;;;;;;5112988;28;19904;-74
2024/03/21 05:34:34;;;;;;;;;;;5.10;89.70;;;;;;5113186;28;19908;-74
2024/03/21 05:37:00;;;;;;;;;;;5.20;89.10;;;;;;5113137;28;20604;-73
2024/03/21 05:39:26;;;;;;;;;;;5.40;87.40;;;;;;5098104;28;19904;-74
2024/03/21 05:41:52;;;;;;;;;;;5.60;86.40;;;;;;5103213;28;19908;-73
2024/03/21 05:44:17;;;;;;;;;;;5.80;85.50;;;;;;5098803;28;19931;-74
2024/03/21 05:46:43;;;;;;;;;;;6.00;83.40;;;;;;5098628;28;19904;-74
2024/03/21 05:49:10;;;;;;;;;;;6.30;82.00;;;;;;5101548;28;19916;-75
2024/03/21 05:51:36;;;;;;;;;;;6.70;79.30;;;;;;5116234;28;19914;-73
2024/03/21 05:54:01;;;;;;;;;;;7.10;76.60;;;;;;5093764;28;20010;-75
2024/03/21 05:56:27;;;;;;;;;;;7.60;74.50;;;;;;5111864;28;20360;-74
2024/03/21 05:58:53;;;;;;;;;;;8.20;71.60;;;;;;5111538;28;19903;-74
2024/03/21 06:03:44;;;;;;;;;;;9.50;65.40;;;;;;5111491;28;19907;-74
2024/03/21 06:06:10;;;;;;;;;;;9.90;62.10;;;;;;5111214;28;20283;-73
2024/03/21 06:08:36;;;;;;;;;;;10.10;59.60;;;;;;5111282;28;20010;-74
2024/03/21 06:11:01;;;;;;;;;;;10.30;59.70;;;;;;5092910;28;20003;-74
2024/03/21 06:13:27;;;;;;;;;;;10.60;59.10;;;;;;5092818;28;19914;-75
2024/03/21 06:15:53;;;;;;;;;;;10.90;57.50;;;;;;5111044;28;19904;-75
2024/03/21 06:18:18;;;;;;;;;;;11.20;56.90;;;;;;5111105;28;20295;-75
2024/03/21 06:20:44;;;;;;;;;;;11.50;56.10;;;;;;5111125;28;19904;-74
2024/03/21 06:23:10;;;;;;;;;;;11.80;55.30;;;;;;5092705;28;20052;-75
2024/03/21 06:25:36;;;;;;;;;;;12.10;53.60;;;;;;5110743;28;19923;-72
2024/03/21 06:28:02;;;;;;;;;;;12.40;52.80;;;;;;5110878;28;19994;-70
2024/03/21 06:30:27;;;;;;;;;;;12.80;51.90;;;;;;5110986;28;20498;-72
2024/03/21 06:32:53;;;;;;;;;;;13.10;50.30;;;;;;5092070;28;20287;-73
2024/03/21 06:35:19;;;;;;;;;;;13.30;49.70;;;;;;5092468;28;19988;-70
2024/03/21 06:37:44;;;;;;;;;;;13.60;48.00;;;;;;5092388;28;20283;-72
2024/03/21 06:40:11;;;;;;;;;;;13.90;47.80;;;;;;5092380;28;19903;-72
2024/03/21 06:42:37;;;;;;;;;;;14.20;45.90;;;;;;5110625;28;19903;-72
2024/03/21 06:45:04;;;;;;;;;;;14.60;45.10;;;;;;5110657;28;19904;-73
2024/03/21 06:47:30;;;;;;;;;;;14.70;44.80;;;;;;5110418;28;19903;-71
2024/03/21 06:49:58;;;;;;;;;;;15.00;44.10;;;;;;5092573;28;19912;-73
2024/03/21 06:52:24;;;;;;;;;;;15.60;43.00;;;;;;5092196;28;20276;-73
2024/03/21 06:54:50;;;;;;;;;;;16.00;42.80;;;;;;5092167;28;20517;-71
2024/03/21 06:57:16;;;;;;;;;;;16.60;40.60;;;;;;5092252;28;19911;-73
2024/03/21 06:59:41;;;;;;;;;;;17.00;39.70;;;;;;5092276;28;19907;-72
2024/03/21 07:02:07;;;;;;;;;;;17.40;37.60;;;;;;5092283;28;19911;-72
2024/03/21 07:04:33;;;;;;;;;;;17.60;37.50;;;;;;5092492;28;19904;-72
2024/03/21 07:06:59;;;;;;;;;;;17.80;36.20;;;;;;5092177;28;19914;-71
2024/03/21 07:09:24;;;;;;;;;;;17.90;36.00;;;;;;5110234;28;19954;-73
2024/03/21 07:11:50;;;;;;;;;;;17.80;36.10;;;;;;5092301;28;19933;-73
2024/03/21 07:14:15;;;;;;;;;;;17.60;36.50;;;;;;5109994;28;19908;-72
2024/03/21 07:16:41;;;;;;;;;;;17.60;37.60;;;;;;5091939;28;20002;-72
2024/03/21 07:19:07;;;;;;;;;;;17.80;36.00;;;;;;5110245;28;19910;-73
2024/03/21 07:21:32;;;;;;;;;;;17.90;35.60;;;;;;5110150;28;20337;-72
2024/03/21 07:23:58;;;;;;;;;;;17.80;36.10;;;;;;5110133;28;19904;-73
2024/03/21 07:26:23;;;;;;;;;;;17.60;36.30;;;;;;5091896;28;19904;-73
2024/03/21 07:28:49;;;;;;;;;;;17.20;37.00;;;;;;5110114;28;19908;-74
2024/03/21 07:31:14;;;;;;;;;;;17.30;36.70;;;;;;5091704;28;19911;-72
2024/03/21 07:33:40;;;;;;;;;;;16.90;37.80;;;;;;5110384;28;19908;-71
2024/03/21 07:36:05;;;;;;;;;;;17.00;37.40;;;;;;5091942;28;20390;-72
2024/03/21 07:38:32;;;;;;;;;;;17.30;37.50;;;;;;5092097;28;19964;-73
2024/03/21 07:40:59;;;;;;;;;;;17.20;37.60;;;;;;5110092;28;19908;-71
2024/03/21 07:43:25;;;;;;;;;;;17.50;37.10;;;;;;5110023;28;19926;-72
2024/03/21 07:45:50;;;;;;;;;;;17.70;36.40;;;;;;5094291;28;20376;-73
2024/03/21 07:48:16;;;;;;;;;;;17.40;36.60;;;;;;5095628;28;19998;-73
2024/03/21 07:50:42;;;;;;;;;;;17.10;36.40;;;;;;5095738;28;19920;-73
2024/03/21 07:53:07;;;;;;;;;;;17.60;36.10;;;;;;5114058;28;19931;-73
2024/03/21 07:55:33;;;;;;;;;;;18.00;35.10;;;;;;5095671;28;19946;-73
2024/03/21 07:58:02;;;;;;;;;;;18.50;34.70;;;;;;5095786;28;19914;-71
2024/03/21 08:00:31;;;;;;;;;;;19.00;34.00;;;;;;5095417;28;19930;-72
2024/03/21 08:02:56;;;;;;;;;;;19.20;32.30;;;;;;5113779;28;20295;-73
2024/03/21 08:05:22;;;;;;;;;;;19.00;32.00;;;;;;5095583;28;20329;-73
2024/03/21 08:07:48;;;;;;;;;;;18.70;33.00;;;;;;5095375;28;20330;-73
2024/03/21 08:10:14;;;;;;;;;;;18.40;32.60;;;;;;5113496;28;19918;-73
2024/03/21 08:12:39;;;;;;;;;;;18.10;33.20;;;;;;5113583;28;20395;-72
2024/03/21 08:15:05;;;;;;;;;;;18.00;32.90;;;;;;5095208;28;19959;-72
2024/03/21 08:17:31;;;;;;;;;;;17.70;33.50;;;;;;5095208;28;20082;-72
2024/03/21 08:19:57;;;;;;;;;;;17.70;34.20;;;;;;5113420;28;20226;-73
2024/03/21 08:22:22;;;;;;;;;;;18.00;33.40;;;;;;5095026;28;20325;-73
2024/03/21 08:24:48;;;;;;;;;;;18.30;32.60;;;;;;5113207;28;19919;-73
2024/03/21 08:27:17;;;;;;;;;;;18.60;32.70;;;;;;5094938;28;19926;-73
2024/03/21 08:29:43;;;;;;;;;;;18.70;33.50;;;;;;5113182;28;19999;-73
2024/03/21 08:32:09;;;;;;;;;;;19.00;31.50;;;;;;5095103;28;19994;-73
2024/03/21 08:34:34;;;;;;;;;;;19.00;30.80;;;;;;5113120;28;19904;-74
2024/03/21 08:37:00;;;;;;;;;;;18.90;31.00;;;;;;5094897;28;19908;-73
2024/03/21 08:39:25;;;;;;;;;;;19.20;31.20;;;;;;5094794;28;19991;-72
2024/03/21 08:41:51;;;;;;;;;;;19.40;31.60;;;;;;5094715;28;19918;-72
2024/03/21 08:44:16;;;;;;;;;;;19.50;30.80;;;;;;5112984;28;19910;-73
2024/03/21 08:46:42;;;;;;;;;;;19.60;31.60;;;;;;5112981;28;19975;-72
2024/03/21 08:49:07;;;;;;;;;;;19.90;30.60;;;;;;5112858;28;20376;-72
2024/03/21 08:51:33;;;;;;;;;;;20.10;30.50;;;;;;5094695;28;19903;-73
2024/03/21 08:53:58;;;;;;;;;;;20.30;29.50;;;;;;5112738;28;19903;-73
2024/03/21 08:56:24;;;;;;;;;;;20.50;28.90;;;;;;5112842;28;19907;-73
2024/03/21 08:58:49;;;;;;;;;;;20.30;30.00;;;;;;5094266;28;20052;-73
2024/03/21 09:01:15;;;;;;;;;;;20.00;30.00;;;;;;5094129;28;19997;-72
2024/03/21 09:03:40;;;;;;;;;;;19.90;30.50;;;;;;5094338;28;19994;-73
2024/03/21 09:06:06;;;;;;;;;;;19.90;31.70;;;;;;5112658;28;19908;-72
2024/03/21 09:08:34;;;;;;;;;;;20.20;30.60;;;;;;5112458;28;20291;-72
2024/03/21 09:11:00;;;;;;;;;;;20.20;30.90;;;;;;5112517;28;19996;-73
2024/03/21 09:13:26;;;;;;;;;;;19.70;31.90;;;;;;5094292;28;19919;-73
2024/03/21 09:15:52;;;;;;;;;;;19.40;31.30;;;;;;5094286;28;19912;-73
2024/03/21 09:18:17;;;;;;;;;;;19.40;31.30;;;;;;5094671;28;19953;-73
2024/03/21 09:20:46;;;;;;;;;;;19.40;32.40;;;;;;5094024;28;19908;-72
2024/03/21 09:23:12;;;;;;;;;;;19.50;31.00;;;;;;5112482;28;19925;-73
2024/03/21 09:25:37;;;;;;;;;;;19.40;30.50;;;;;;5112312;28;19919;-73
2024/03/21 09:28:03;;;;;;;;;;;19.40;31.20;;;;;;5093866;28;19930;-73
2024/03/21 09:30:28;;;;;;;;;;;19.50;31.10;;;;;;5094205;28;20322;-72
2024/03/21 09:32:54;;;;;;;;;;;19.80;30.40;;;;;;5112035;28;19908;-73
2024/03/21 09:35:20;;;;;;;;;;;20.10;29.90;;;;;;5111974;28;19907;-73
2024/03/21 09:37:45;;;;;;;;;;;19.70;31.30;;;;;;5111832;28;20383;-73
2024/03/21 09:40:13;;;;;;;;;;;19.70;32.40;;;;;;5093550;28;19908;-73
2024/03/21 09:42:39;;;;;;;;;;;19.70;30.60;;;;;;5111984;28;19907;-72
2024/03/21 09:45:10;;;;;;;;;;;19.40;31.30;;;;;;5111874;28;20010;-73
2024/03/21 09:47:37;;;;;;;;;;;19.00;32.00;;;;;;5093516;28;19907;-73
2024/03/21 09:50:02;;;;;;;;;;;18.80;31.50;;;;;;5111585;28;19923;-73
2024/03/21 09:52:29;;;;;;;;;;;18.80;32.60;;;;;;5111653;28;20403;-71
2024/03/21 09:54:55;;;;;;;;;;;19.00;32.90;;;;;;5093296;28;19953;-73
2024/03/21 09:57:21;;;;;;;;;;;19.50;32.30;;;;;;5093138;28;19907;-72
2024/03/21 09:59:47;;;;;;;;;;;19.80;30.20;;;;;;5111583;28;19930;-73
2024/03/21 10:02:12;;;;;;;;;;;19.80;30.50;;;;;;5093013;28;20380;-72
2024/03/21 10:04:46;;;;;;;;;;;19.70;31.80;;;;;;5111406;28;19907;-73
2024/03/21 10:07:18;;;;;;;;;;;20.00;30.50;;;;;;5093127;28;20199;-73
2024/03/21 10:09:54;;;;;;;;;;;20.20;30.00;;;;;;5092801;28;19951;-72
2024/03/21 10:12:19;;;;;;;;;;;20.30;30.70;;;;;;5111274;28;19903;-72
2024/03/21 10:14:45;;;;;;;;;;;20.70;29.90;;;;;;5111334;28;19910;-72
2024/03/21 10:17:10;;;;;;;;;;;20.60;29.50;;;;;;5092729;28;19903;-73
2024/03/21 10:19:36;;;;;;;;;;;20.90;29.20;;;;;;5111061;28;19994;-72
2024/03/21 10:22:01;;;;;;;;;;;20.90;29.20;;;;;;5110960;28;19908;-73
2024/03/21 10:24:27;;;;;;;;;;;20.70;29.40;;;;;;5111023;28;19922;-73
2024/03/21 10:26:52;;;;;;;;;;;20.40;29.60;;;;;;5092654;28;19912;-73
2024/03/21 10:29:18;;;;;;;;;;;20.10;30.00;;;;;;5092230;28;20440;-73
2024/03/21 10:31:44;;;;;;;;;;;19.90;30.00;;;;;;5092954;28;20486;-73
2024/03/21 10:34:10;;;;;;;;;;;19.80;30.60;;;;;;5092989;28;20551;-73
2024/03/21 10:36:36;;;;;;;;;;;19.90;30.80;;;;;;5092637;28;20399;-72
2024/03/21 10:39:01;;;;;;;;;;;20.30;31.20;;;;;;5092546;28;19907;-73
2024/03/21 10:41:28;;;;;;;;;;;20.30;29.60;;;;;;5110685;28;20010;-73
2024/03/21 10:44:04;;;;;;;;;;;19.80;29.70;;;;;;5110751;28;20049;-72
2024/03/21 10:46:30;;;;;;;;;;;19.30;30.80;;;;;;5110641;28;19910;-72
2024/03/21 10:49:00;;;;;;;;;;;18.80;31.40;;;;;;5110566;28;20280;-73
2024/03/21 10:51:25;;;;;;;;;;;18.20;32.40;;;;;;5110514;28;20415;-72
2024/03/21 10:53:58;;;;;;;;;;;17.70;33.20;;;;;;5110696;28;19907;-72
2024/03/21 10:56:27;;;;;;;;;;;17.40;34.60;;;;;;5110568;28;19908;-73
2024/03/21 10:58:56;;;;;;;;;;;17.10;35.70;;;;;;5092187;28;19911;-72
2024/03/21 11:01:31;;;;;;;;;;;16.90;35.10;;;;;;5092008;28;19912;-71
2024/03/21 11:04:01;;;;;;;;;;;16.70;35.40;;;;;;5110442;28;19904;-73
2024/03/21 11:06:29;;;;;;;;;;;16.50;36.40;;;;;;5110592;28;19914;-73
2024/03/21 11:08:55;;;;;;;;;;;16.30;36.70;;;;;;5110305;28;20108;-72
2024/03/21 11:11:21;;;;;;;;;;;16.30;37.10;;;;;;5091827;28;20395;-72
2024/03/21 11:13:46;;;;;;;;;;;16.30;35.80;;;;;;5092018;28;20329;-73
2024/03/21 11:16:12;;;;;;;;;;;16.10;35.80;;;;;;5092070;28;19912;-72
2024/03/21 11:18:38;;;;;;;;;;;16.10;35.60;;;;;;5110196;28;19914;-73
2024/03/21 11:21:05;;;;;;;;;;;16.00;34.90;;;;;;5094612;28;19908;-73
2024/03/21 11:23:30;;;;;;;;;;;15.90;35.90;;;;;;5114543;28;20040;-73
2024/03/21 11:25:56;;;;;;;;;;;15.80;37.00;;;;;;5096128;28;20400;-72
2024/03/21 11:28:22;;;;;;;;;;;15.80;37.30;;;;;;5096046;28;19918;-72
2024/03/21 11:30:47;;;;;;;;;;;16.00;38.10;;;;;;5096317;28;19908;-72
2024/03/21 11:33:13;;;;;;;;;;;16.10;38.50;;;;;;5095949;28;19931;-72
2024/03/21 11:35:39;;;;;;;;;;;16.20;37.50;;;;;;5114377;28;19949;-72
2024/03/21 11:38:06;;;;;;;;;;;16.10;37.30;;;;;;5096079;28;20402;-72
2024/03/21 11:40:32;;;;;;;;;;;16.10;37.50;;;;;;5114244;28;19912;-73
2024/03/21 11:43:02;;;;;;;;;;;16.00;37.80;;;;;;5114375;28;19927;-72
2024/03/21 11:45:27;;;;;;;;;;;15.80;37.80;;;;;;5096090;28;19911;-71
2024/03/21 11:47:53;;;;;;;;;;;15.70;38.20;;;;;;5114146;28;20693;-72
2024/03/21 11:50:18;;;;;;;;;;;15.60;39.10;;;;;;5113973;28;19955;-72
2024/03/21 11:52:44;;;;;;;;;;;15.40;38.30;;;;;;5095628;28;19907;-72
2024/03/21 11:55:09;;;;;;;;;;;15.50;39.90;;;;;;5113978;28;19910;-73
2024/03/21 11:57:35;;;;;;;;;;;15.50;39.70;;;;;;5113687;28;19911;-71
2024/03/21 12:00:00;;;;;;;;;;;15.60;40.20;;;;;;5095458;28;19910;-72
2024/03/21 12:02:26;;;;;;;;;;;15.80;40.30;;;;;;5113775;28;19914;-72
2024/03/21 12:04:57;;;;;;;;;;;15.90;39.80;;;;;;5113768;28;19908;-72
2024/03/21 12:07:22;;;;;;;;;;;16.00;38.80;;;;;;5113669;28;20283;-72
2024/03/21 12:09:48;;;;;;;;;;;16.10;39.00;;;;;;5095285;28;19912;-73
2024/03/21 12:12:17;;;;;;;;;;;16.10;37.80;;;;;;5113626;28;19908;-72
2024/03/21 12:14:43;;;;;;;;;;;16.00;37.20;;;;;;5113622;28;19910;-72
2024/03/21 12:17:10;;;;;;;;;;;15.90;37.50;;;;;;5113581;28;19994;-72
2024/03/21 12:19:36;;;;;;;;;;;15.90;38.60;;;;;;5095147;28;19914;-72
2024/03/21 12:22:02;;;;;;;;;;;16.00;38.40;;;;;;5095257;28;19908;-73
2024/03/21 12:24:27;;;;;;;;;;;16.10;37.90;;;;;;5113458;28;19916;-72
2024/03/21 12:26:53;;;;;;;;;;;16.00;37.60;;;;;;5095055;28;20392;-73
2024/03/21 12:29:18;;;;;;;;;;;16.10;38.50;;;;;;5112071;28;19955;-72
2024/03/21 12:31:44;;;;;;;;;;;16.20;38.30;;;;;;5094607;28;19908;-73
2024/03/21 12:34:09;;;;;;;;;;;16.30;38.40;;;;;;5113319;28;19908;-73
2024/03/21 12:36:35;;;;;;;;;;;16.40;38.70;;;;;;5113162;28;19915;-73
2024/03/21 12:39:00;;;;;;;;;;;16.40;37.90;;;;;;5113143;28;19915;-73
2024/03/21 12:41:26;;;;;;;;;;;16.40;37.40;;;;;;5112844;28;19912;-73
2024/03/21 12:43:51;;;;;;;;;;;16.40;37.00;;;;;;5094776;28;20372;-73
2024/03/21 12:46:17;;;;;;;;;;;16.40;37.70;;;;;;5113063;28;19905;-72
2024/03/21 12:48:44;;;;;;;;;;;16.40;38.00;;;;;;5112753;28;19934;-72
2024/03/21 12:51:12;;;;;;;;;;;16.40;37.70;;;;;;5113064;28;20335;-73
2024/03/21 12:53:37;;;;;;;;;;;16.50;37.20;;;;;;5112859;28;19908;-73
2024/03/21 12:56:03;;;;;;;;;;;16.50;37.90;;;;;;5112863;28;19914;-73
2024/03/21 12:58:28;;;;;;;;;;;16.60;37.90;;;;;;5094487;28;19961;-73
2024/03/21 13:00:54;;;;;;;;;;;16.70;38.10;;;;;;5094377;28;19915;-72
2024/03/21 13:03:20;;;;;;;;;;;16.70;37.20;;;;;;5112648;28;19904;-73
2024/03/21 13:05:45;;;;;;;;;;;16.70;37.60;;;;;;5112599;28;19907;-72
2024/03/21 13:08:11;;;;;;;;;;;16.70;37.20;;;;;;5112610;28;19910;-74
2024/03/21 13:10:37;;;;;;;;;;;16.70;38.10;;;;;;5094084;28;19949;-72
2024/03/21 13:13:03;;;;;;;;;;;16.70;37.00;;;;;;5112586;28;19998;-72
2024/03/21 13:15:28;;;;;;;;;;;16.80;38.40;;;;;;5112441;28;19903;-72
2024/03/21 13:17:54;;;;;;;;;;;16.80;37.60;;;;;;5112406;28;19914;-72
2024/03/21 13:20:20;;;;;;;;;;;16.70;37.60;;;;;;5094279;28;19904;-73
2024/03/21 13:22:46;;;;;;;;;;;16.70;37.70;;;;;;5093827;28;19907;-73
2024/03/21 13:25:14;;;;;;;;;;;16.70;37.10;;;;;;5093939;28;19929;-72
2024/03/21 13:27:39;;;;;;;;;;;16.60;37.60;;;;;;5112239;28;20372;-72
2024/03/21 13:30:05;;;;;;;;;;;16.60;37.30;;;;;;5093691;28;19923;-72
2024/03/21 13:32:31;;;;;;;;;;;16.50;37.90;;;;;;5112129;28;20371;-72
2024/03/21 13:34:57;;;;;;;;;;;16.40;37.60;;;;;;5093606;28;20324;-73
2024/03/21 13:37:23;;;;;;;;;;;16.40;37.70;;;;;;5093563;28;19914;-73
2024/03/21 13:39:48;;;;;;;;;;;16.30;38.10;;;;;;5111948;28;19908;-72
2024/03/21 13:42:14;;;;;;;;;;;16.30;38.00;;;;;;5092946;28;20272;-73
2024/03/21 13:44:39;;;;;;;;;;;16.30;38.60;;;;;;5093421;28;20425;-72
2024/03/21 13:47:05;;;;;;;;;;;16.30;38.90;;;;;;5111825;28;19908;-71
2024/03/21 13:49:31;;;;;;;;;;;16.30;39.20;;;;;;5093385;28;20412;-72
2024/03/21 13:51:57;;;;;;;;;;;16.30;39.50;;;;;;5093735;28;19914;-71
2024/03/21 13:54:24;;;;;;;;;;;16.40;39.80;;;;;;5111910;28;19960;-72
2024/03/21 13:56:50;;;;;;;;;;;16.40;40.40;;;;;;5093230;28;19908;-72
2024/03/21 13:59:15;;;;;;;;;;;16.30;39.90;;;;;;5093683;28;19904;-72
2024/03/21 14:01:41;;;;;;;;;;;16.30;40.10;;;;;;5093217;28;19908;-72
2024/03/21 14:04:06;;;;;;;;;;;16.30;39.70;;;;;;5093083;28;19911;-71
2024/03/21 14:06:32;;;;;;;;;;;16.30;39.50;;;;;;5093253;28;19907;-72
2024/03/21 14:08:58;;;;;;;;;;;16.20;39.70;;;;;;5111257;28;19907;-72
2024/03/21 14:11:23;;;;;;;;;;;16.20;40.00;;;;;;5111103;28;19907;-72
2024/03/21 14:13:51;;;;;;;;;;;16.20;40.10;;;;;;5092920;28;19990;-72
2024/03/21 14:16:17;;;;;;;;;;;16.20;40.30;;;;;;5092835;28;20010;-72
2024/03/21 14:18:43;;;;;;;;;;;16.10;39.80;;;;;;5111111;28;19950;-72
2024/03/21 14:21:08;;;;;;;;;;;16.00;39.50;;;;;;5111027;28;19950;-72
2024/03/21 14:23:34;;;;;;;;;;;15.80;40.20;;;;;;5092490;28;20384;-72